sensor_id;sensor_type;location;lat;lon;timestamp;pressure;altitude;pressure_sealevel;temperature
84287;BMP280;74445;55.252;61.092;2024-01-30T00:00:19;141417.34;;;-15.27
84287;BMP280;74445;55.252;61.092;2024-01-30T00:02:47;141394.63;;;-15.37
84287;BMP280;74445;55.252;61.092;2024-01-30T00:05:15;141371.84;;;-15.46
84287;BMP280;74445;55.252;61.092;2024-01-30T00:07:42;141351.50;;;-15.55
84287;BMP280;74445;55.252;61.092;2024-01-30T00:10:08;141332.38;;;-15.63
84287;BMP280;74445;55.252;61.092;2024-01-30T00:12:35;141315.59;;;-15.70
84287;BMP280;74445;55.252;61.092;2024-01-30T00:15:02;141294.06;;;-15.79
84287;BMP280;74445;55.252;61.092;2024-01-30T00:17:31;141284.50;;;-15.83
84287;BMP280;74445;55.252;61.092;2024-01-30T00:19:57;141279.69;;;-15.85
84287;BMP280;74445;55.252;61.092;2024-01-30T00:22:25;141273.69;;;-15.87
84287;BMP280;74445;55.252;61.092;2024-01-30T00:24:52;141260.56;;;-15.93
84287;BMP280;74445;55.252;61.092;2024-01-30T00:27:18;141236.63;;;-16.02
84287;BMP280;74445;55.252;61.092;2024-01-30T00:29:45;141209.09;;;-16.14
84287;BMP280;74445;55.252;61.092;2024-01-30T00:32:11;141180.38;;;-16.26
84287;BMP280;74445;55.252;61.092;2024-01-30T00:34:37;141157.72;;;-16.35
84287;BMP280;74445;55.252;61.092;2024-01-30T00:37:04;141134.97;;;-16.45
84287;BMP280;74445;55.252;61.092;2024-01-30T00:39:32;141100.31;;;-16.59
84287;BMP280;74445;55.252;61.092;2024-01-30T00:41:58;141070.44;;;-16.72
84287;BMP280;74445;55.252;61.092;2024-01-30T00:44:25;141039.34;;;-16.84
84287;BMP280;74445;55.252;61.092;2024-01-30T00:46:51;141016.59;;;-16.93
84287;BMP280;74445;55.252;61.092;2024-01-30T00:49:18;140996.31;;;-17.02
84287;BMP280;74445;55.252;61.092;2024-01-30T00:51:45;140980.75;;;-17.08
84287;BMP280;74445;55.252;61.092;2024-01-30T00:54:11;140967.63;;;-17.13
84287;BMP280;74445;55.252;61.092;2024-01-30T00:56:39;140956.84;;;-17.18
84287;BMP280;74445;55.252;61.092;2024-01-30T00:59:06;140935.31;;;-17.27
84287;BMP280;74445;55.252;61.092;2024-01-30T01:01:32;140913.88;;;-17.36
84287;BMP280;74445;55.252;61.092;2024-01-30T01:03:59;140591.38;;;-17.42
84287;BMP280;74445;55.252;61.092;2024-01-30T01:06:25;140283.22;;;-17.42
84287;BMP280;74445;55.252;61.092;2024-01-30T01:08:52;140295.09;;;-17.37
84287;BMP280;74445;55.252;61.092;2024-01-30T01:11:19;140614.03;;;-17.32
84287;BMP280;74445;55.252;61.092;2024-01-30T01:13:48;140631.88;;;-17.25
84287;BMP280;74445;55.252;61.092;2024-01-30T01:16:14;140954.44;;;-17.19
84287;BMP280;74445;55.252;61.092;2024-01-30T01:18:41;140659.31;;;-17.13
84287;BMP280;74445;55.252;61.092;2024-01-30T01:21:08;140362.91;;;-17.09
84287;BMP280;74445;55.252;61.092;2024-01-30T01:23:34;140065.25;;;-17.04
84287;BMP280;74445;55.252;61.092;2024-01-30T01:26:01;139767.59;;;-17.00
84287;BMP280;74445;55.252;61.092;2024-01-30T01:28:27;139780.63;;;-16.94
84287;BMP280;74445;55.252;61.092;2024-01-30T01:30:55;139793.69;;;-16.89
84287;BMP280;74445;55.252;61.092;2024-01-30T01:33:25;139484.03;;;-16.89
84287;BMP280;74445;55.252;61.092;2024-01-30T01:35:52;139170.91;;;-16.91
84287;BMP280;74445;55.252;61.092;2024-01-30T01:38:18;138850.72;;;-16.96
84287;BMP280;74445;55.252;61.092;2024-01-30T01:40:45;138529.44;;;-17.02
84287;BMP280;74445;55.252;61.092;2024-01-30T01:43:12;138522.38;;;-17.05
84287;BMP280;74445;55.252;61.092;2024-01-30T01:45:38;138509.44;;;-17.10
84287;BMP280;74445;55.252;61.092;2024-01-30T01:48:07;138811.88;;;-17.13
84287;BMP280;74445;55.252;61.092;2024-01-30T01:50:34;139417.81;;;-17.17
84287;BMP280;74445;55.252;61.092;2024-01-30T01:53:02;139394.16;;;-17.27
84287;BMP280;74445;55.252;61.092;2024-01-30T01:55:29;139051.78;;;-17.41
84287;BMP280;74445;55.252;61.092;2024-01-30T01:57:57;138091.00;;;-17.57
84287;BMP280;74445;55.252;61.092;2024-01-30T02:00:23;137441.03;;;-17.71
84287;BMP280;74445;55.252;61.092;2024-01-30T02:02:52;136802.94;;;-17.81
84287;BMP280;74445;55.252;61.092;2024-01-30T02:05:21;136784.41;;;-17.89
84287;BMP280;74445;55.252;61.092;2024-01-30T02:07:48;136139.69;;;-18.01
84287;BMP280;74445;55.252;61.092;2024-01-30T02:10:15;135188.59;;;-18.13
84287;BMP280;74445;55.252;61.092;2024-01-30T02:12:42;133926.84;;;-18.27
84287;BMP280;74445;55.252;61.092;2024-01-30T02:15:08;132980.00;;;-18.37
84287;BMP280;74445;55.252;61.092;2024-01-30T02:17:42;132960.81;;;-18.45
84287;BMP280;74445;55.252;61.092;2024-01-30T02:20:11;132938.19;;;-18.55
84287;BMP280;74445;55.252;61.092;2024-01-30T02:22:40;131991.97;;;-18.66
84287;BMP280;74445;55.252;61.092;2024-01-30T02:25:08;130426.78;;;-18.78
84287;BMP280;74445;55.252;61.092;2024-01-30T02:27:34;129168.53;;;-18.91
84287;BMP280;74445;55.252;61.092;2024-01-30T02:30:01;127602.44;;;-19.05
84287;BMP280;74445;55.252;61.092;2024-01-30T02:32:30;126349.72;;;-19.16
84287;BMP280;74445;55.252;61.092;2024-01-30T02:34:57;125710.63;;;-19.27
84287;BMP280;74445;55.252;61.092;2024-01-30T02:37:24;124458.69;;;-19.38
84287;BMP280;74445;55.252;61.092;2024-01-30T02:39:52;124136.78;;;-19.45
84287;BMP280;74445;55.252;61.092;2024-01-30T02:42:20;124742.38;;;-19.49
84287;BMP280;74445;55.252;61.092;2024-01-30T02:44:46;125965.19;;;-19.51
84287;BMP280;74445;55.252;61.092;2024-01-30T02:47:13;127186.81;;;-19.54
84287;BMP280;74445;55.252;61.092;2024-01-30T02:49:41;128410.53;;;-19.56
84287;BMP280;74445;55.252;61.092;2024-01-30T02:52:07;128401.78;;;-19.60
84287;BMP280;74445;55.252;61.092;2024-01-30T02:54:33;126542.59;;;-19.68
84287;BMP280;74445;55.252;61.092;2024-01-30T02:57:02;123768.47;;;-19.74
84287;BMP280;74445;55.252;61.092;2024-01-30T02:59:28;122537.75;;;-19.75
84287;BMP280;74445;55.252;61.092;2024-01-30T03:01:55;123776.91;;;-19.70
84287;BMP280;74445;55.252;61.092;2024-01-30T03:04:22;125639.94;;;-19.60
84287;BMP280;74445;55.252;61.092;2024-01-30T03:06:48;127200.91;;;-19.48
84287;BMP280;74445;55.252;61.092;2024-01-30T03:09:16;128161.34;;;-19.30
84287;BMP280;74445;55.252;61.092;2024-01-30T03:11:43;129438.41;;;-19.08
84287;BMP280;74445;55.252;61.092;2024-01-30T03:14:12;131333.41;;;-18.85
84287;BMP280;74445;55.252;61.092;2024-01-30T03:16:39;133225.34;;;-18.64
84287;BMP280;74445;55.252;61.092;2024-01-30T03:19:06;134501.09;;;-18.44
84287;BMP280;74445;55.252;61.092;2024-01-30T03:21:33;135156.50;;;-18.27
84287;BMP280;74445;55.252;61.092;2024-01-30T03:24:00;135196.66;;;-18.10
84287;BMP280;74445;55.252;61.092;2024-01-30T03:26:26;135845.69;;;-17.95
84287;BMP280;74445;55.252;61.092;2024-01-30T03:28:53;136801.81;;;-17.81
84287;BMP280;74445;55.252;61.092;2024-01-30T03:31:21;137445.69;;;-17.69
84287;BMP280;74445;55.252;61.092;2024-01-30T03:33:49;138392.00;;;-17.60
84287;BMP280;74445;55.252;61.092;2024-01-30T03:36:16;139022.28;;;-17.54
84287;BMP280;74445;55.252;61.092;2024-01-30T03:38:42;139345.75;;;-17.47
84287;BMP280;74445;55.252;61.092;2024-01-30T03:41:09;139969.16;;;-17.44
84287;BMP280;74445;55.252;61.092;2024-01-30T03:43:39;139972.69;;;-17.43
84287;BMP280;74445;55.252;61.092;2024-01-30T03:46:05;139651.53;;;-17.48
84287;BMP280;74445;55.252;61.092;2024-01-30T03:48:33;138707.13;;;-17.57
84287;BMP280;74445;55.252;61.092;2024-01-30T03:51:00;137450.38;;;-17.67
84287;BMP280;74445;55.252;61.092;2024-01-30T03:53:26;137742.00;;;-17.74
84287;BMP280;74445;55.252;61.092;2024-01-30T03:55:53;137110.91;;;-17.81
84287;BMP280;74445;55.252;61.092;2024-01-30T03:58:19;135552.81;;;-17.89
84287;BMP280;74445;55.252;61.092;2024-01-30T04:00:46;133386.22;;;-17.94
84287;BMP280;74445;55.252;61.092;2024-01-30T04:03:13;132453.63;;;-17.98
84287;BMP280;74445;55.252;61.092;2024-01-30T04:05:43;132453.63;;;-17.98
84287;BMP280;74445;55.252;61.092;2024-01-30T04:08:10;132755.81;;;-18.00
84287;BMP280;74445;55.252;61.092;2024-01-30T04:10:36;131205.53;;;-18.05
84287;BMP280;74445;55.252;61.092;2024-01-30T04:13:03;128426.69;;;-18.09
84287;BMP280;74445;55.252;61.092;2024-01-30T04:15:29;125341.69;;;-18.13
84287;BMP280;74445;55.252;61.092;2024-01-30T04:17:57;123807.28;;;-18.11
84287;BMP280;74445;55.252;61.092;2024-01-30T04:20:25;122311.34;;;-17.90
84287;BMP280;74445;55.252;61.092;2024-01-30T04:22:53;123131.38;;;-16.93
84287;BMP280;74445;55.252;61.092;2024-01-30T04:25:20;121903.88;;;-15.42
84287;BMP280;74445;55.252;61.092;2024-01-30T04:27:46;102318.31;;;-13.80
84287;BMP280;74445;55.252;61.092;2024-01-30T04:30:13;68402.72;;;-12.21
84287;BMP280;74445;55.252;61.092;2024-01-30T04:32:40;64087.19;;;-10.74
84287;BMP280;74445;55.252;61.092;2024-01-30T04:35:06;78217.84;;;-9.37
84287;BMP280;74445;55.252;61.092;2024-01-30T04:37:33;102464.03;;;-8.16
84287;BMP280;74445;55.252;61.092;2024-01-30T04:40:01;117655.00;;;-6.99
84287;BMP280;74445;55.252;61.092;2024-01-30T04:42:29;140684.91;;;-5.91
84287;BMP280;74445;55.252;61.092;2024-01-30T04:44:56;143666.38;;;-4.91
84287;BMP280;74445;55.252;61.092;2024-01-30T04:47:23;141945.16;;;-3.93
84287;BMP280;74445;55.252;61.092;2024-01-30T04:49:50;140878.59;;;-2.96
84287;BMP280;74445;55.252;61.092;2024-01-30T04:52:17;144625.13;;;-2.01
84287;BMP280;74445;55.252;61.092;2024-01-30T04:54:44;144838.53;;;-1.14
84287;BMP280;74445;55.252;61.092;2024-01-30T04:57:13;145066.63;;;-0.20
84287;BMP280;74445;55.252;61.092;2024-01-30T04:59:40;145243.84;;;0.53
84287;BMP280;74445;55.252;61.092;2024-01-30T05:02:06;145426.09;;;1.27
84287;BMP280;74445;55.252;61.092;2024-01-30T05:04:34;145591.44;;;1.95
84287;BMP280;74445;55.252;61.092;2024-01-30T05:07:01;145742.19;;;2.57
84287;BMP280;74445;55.252;61.092;2024-01-30T05:09:27;145895.53;;;3.20
84287;BMP280;74445;55.252;61.092;2024-01-30T05:11:54;146029.47;;;3.74
84287;BMP280;74445;55.252;61.092;2024-01-30T05:14:22;146175.63;;;4.34
84287;BMP280;74445;55.252;61.092;2024-01-30T05:16:49;146249.94;;;4.65
84287;BMP280;74445;55.252;61.092;2024-01-30T05:19:16;146353.56;;;5.07
84287;BMP280;74445;55.252;61.092;2024-01-30T05:21:43;146466.91;;;5.53
84287;BMP280;74445;55.252;61.092;2024-01-30T05:24:10;146562.09;;;5.92
84287;BMP280;74445;55.252;61.092;2024-01-30T05:26:37;146635.31;;;6.22
84287;BMP280;74445;55.252;61.092;2024-01-30T05:29:04;146685.31;;;6.42
84287;BMP280;74445;55.252;61.092;2024-01-30T05:31:32;146781.72;;;6.82
84287;BMP280;74445;55.252;61.092;2024-01-30T05:33:59;146812.25;;;6.94
84287;BMP280;74445;55.252;61.092;2024-01-30T05:36:26;146889.16;;;7.26
84287;BMP280;74445;55.252;61.092;2024-01-30T05:38:53;146917.25;;;7.37
84287;BMP280;74445;55.252;61.092;2024-01-30T05:41:21;146980.78;;;7.63
84287;BMP280;74445;55.252;61.092;2024-01-30T05:43:47;147068.69;;;7.99
84287;BMP280;74445;55.252;61.092;2024-01-30T05:46:15;147117.59;;;8.19
84287;BMP280;74445;55.252;61.092;2024-01-30T05:48:42;147187.28;;;8.47
84287;BMP280;74445;55.252;61.092;2024-01-30T05:51:09;147220.25;;;8.61
84287;BMP280;74445;55.252;61.092;2024-01-30T05:53:36;147283.84;;;8.86
84287;BMP280;74445;55.252;61.092;2024-01-30T05:56:03;147316.81;;;9.00
84287;BMP280;74445;55.252;61.092;2024-01-30T05:58:30;147389.00;;;9.29
84287;BMP280;74445;55.252;61.092;2024-01-30T06:01:00;147437.91;;;9.49
84287;BMP280;74445;55.252;61.092;2024-01-30T06:03:26;147500.28;;;9.75
84287;BMP280;74445;55.252;61.092;2024-01-30T06:05:54;147544.31;;;9.93
84287;BMP280;74445;55.252;61.092;2024-01-30T06:08:21;147578.63;;;10.07
84287;BMP280;74445;55.252;61.092;2024-01-30T06:10:48;147604.38;;;10.17
84287;BMP280;74445;55.252;61.092;2024-01-30T06:13:15;147658.16;;;10.39
84287;BMP280;74445;55.252;61.092;2024-01-30T06:15:42;147741.41;;;10.73
84287;BMP280;74445;55.252;61.092;2024-01-30T06:18:08;147790.38;;;10.93
84287;BMP280;74445;55.252;61.092;2024-01-30T06:20:36;147801.44;;;10.97
84287;BMP280;74445;55.252;61.092;2024-01-30T06:23:04;147883.47;;;11.31
84287;BMP280;74445;55.252;61.092;2024-01-30T06:25:30;147858.97;;;11.21
84287;BMP280;74445;55.252;61.092;2024-01-30T06:27:58;147883.47;;;11.31
84287;BMP280;74445;55.252;61.092;2024-01-30T06:30:24;147910.41;;;11.41
84287;BMP280;74445;55.252;61.092;2024-01-30T06:32:51;147920.19;;;11.45
84287;BMP280;74445;55.252;61.092;2024-01-30T06:35:19;147939.81;;;11.53
84287;BMP280;74445;55.252;61.092;2024-01-30T06:37:46;147934.91;;;11.51
84287;BMP280;74445;55.252;61.092;2024-01-30T06:40:14;147950.84;;;11.58
84287;BMP280;74445;55.252;61.092;2024-01-30T06:42:41;147893.25;;;11.35
84287;BMP280;74445;55.252;61.092;2024-01-30T06:45:08;147928.75;;;11.49
84287;BMP280;74445;55.252;61.092;2024-01-30T06:47:34;147903.06;;;11.38
84287;BMP280;74445;55.252;61.092;2024-01-30T06:50:01;147904.31;;;11.39
84287;BMP280;74445;55.252;61.092;2024-01-30T06:52:30;147905.50;;;11.39
84287;BMP280;74445;55.252;61.092;2024-01-30T06:54:57;147802.63;;;10.98
84287;BMP280;74445;55.252;61.092;2024-01-30T06:57:26;147898.16;;;11.37
84287;BMP280;74445;55.252;61.092;2024-01-30T06:59:54;147863.84;;;11.23
84287;BMP280;74445;55.252;61.092;2024-01-30T07:02:21;147907.94;;;11.40
84287;BMP280;74445;55.252;61.092;2024-01-30T07:04:47;147899.41;;;11.37
84287;BMP280;74445;55.252;61.092;2024-01-30T07:07:15;147872.47;;;11.26
84287;BMP280;74445;55.252;61.092;2024-01-30T07:09:43;147822.22;;;11.06
84287;BMP280;74445;55.252;61.092;2024-01-30T07:12:10;147834.47;;;11.11
84287;BMP280;74445;55.252;61.092;2024-01-30T07:14:38;147890.81;;;11.34
84287;BMP280;74445;55.252;61.092;2024-01-30T07:17:05;147893.25;;;11.35
84287;BMP280;74445;55.252;61.092;2024-01-30T07:19:32;147914.09;;;11.43
84287;BMP280;74445;55.252;61.092;2024-01-30T07:21:59;147916.56;;;11.44
84287;BMP280;74445;55.252;61.092;2024-01-30T07:24:26;147879.81;;;11.29
84287;BMP280;74445;55.252;61.092;2024-01-30T07:26:53;147856.50;;;11.20
84287;BMP280;74445;55.252;61.092;2024-01-30T07:29:20;147906.75;;;11.40
84287;BMP280;74445;55.252;61.092;2024-01-30T07:31:48;147963.09;;;11.63
84287;BMP280;74445;55.252;61.092;2024-01-30T07:34:15;147889.59;;;11.33
84287;BMP280;74445;55.252;61.092;2024-01-30T07:36:41;147832.03;;;11.10
84287;BMP280;74445;55.252;61.092;2024-01-30T07:39:08;147836.91;;;11.12
84287;BMP280;74445;55.252;61.092;2024-01-30T07:41:36;147844.25;;;11.15
84287;BMP280;74445;55.252;61.092;2024-01-30T07:44:03;147716.91;;;10.63
84287;BMP280;74445;55.252;61.092;2024-01-30T07:46:30;147616.56;;;10.22
84287;BMP280;74445;55.252;61.092;2024-01-30T07:48:58;147699.78;;;10.56
84287;BMP280;74445;55.252;61.092;2024-01-30T07:51:26;147581.09;;;10.08
84287;BMP280;74445;55.252;61.092;2024-01-30T07:53:54;147559.00;;;9.99
84287;BMP280;74445;55.252;61.092;2024-01-30T07:56:21;147458.69;;;9.58
84287;BMP280;74445;55.252;61.092;2024-01-30T07:58:48;147413.47;;;9.39
84287;BMP280;74445;55.252;61.092;2024-01-30T08:01:15;147417.09;;;9.41
84287;BMP280;74445;55.252;61.092;2024-01-30T08:03:42;147308.28;;;8.96
84287;BMP280;74445;55.252;61.092;2024-01-30T08:06:10;147250.84;;;8.73
84287;BMP280;74445;55.252;61.092;2024-01-30T08:08:37;147212.94;;;8.58
84287;BMP280;74445;55.252;61.092;2024-01-30T08:11:04;147168.94;;;8.40
84287;BMP280;74445;55.252;61.092;2024-01-30T08:13:31;147101.69;;;8.12
84287;BMP280;74445;55.252;61.092;2024-01-30T08:15:58;147068.69;;;7.99
84287;BMP280;74445;55.252;61.092;2024-01-30T08:18:24;146885.50;;;7.24
84287;BMP280;74445;55.252;61.092;2024-01-30T08:20:51;146751.22;;;6.69
84287;BMP280;74445;55.252;61.092;2024-01-30T08:23:19;146492.50;;;5.64
84287;BMP280;74445;55.252;61.092;2024-01-30T08:25:46;146241.41;;;4.61
84287;BMP280;74445;55.252;61.092;2024-01-30T08:28:13;145996.59;;;3.61
84287;BMP280;74445;55.252;61.092;2024-01-30T08:30:40;145815.22;;;2.87
84287;BMP280;74445;55.252;61.092;2024-01-30T08:33:06;145693.59;;;2.37
84287;BMP280;74445;55.252;61.092;2024-01-30T08:35:33;145511.19;;;1.62
84287;BMP280;74445;55.252;61.092;2024-01-30T08:38:00;145378.72;;;1.08
84287;BMP280;74445;55.252;61.092;2024-01-30T08:40:28;145348.34;;;0.96
84287;BMP280;74445;55.252;61.092;2024-01-30T08:42:55;145217.13;;;0.42
84287;BMP280;74445;55.252;61.092;2024-01-30T08:45:22;145101.81;;;-0.05
84287;BMP280;74445;55.252;61.092;2024-01-30T08:47:49;145025.38;;;-0.37
84287;BMP280;74445;55.252;61.092;2024-01-30T08:50:16;145001.09;;;-0.47
84287;BMP280;74445;55.252;61.092;2024-01-30T08:52:42;145001.09;;;-0.47
84287;BMP280;74445;55.252;61.092;2024-01-30T08:55:09;144969.53;;;-0.60
84287;BMP280;74445;55.252;61.092;2024-01-30T08:57:37;144910.06;;;-0.84
84287;BMP280;74445;55.252;61.092;2024-01-30T09:00:05;144848.22;;;-1.10
84287;BMP280;74445;55.252;61.092;2024-01-30T09:02:35;144807.00;;;-1.27
84287;BMP280;74445;55.252;61.092;2024-01-30T09:05:02;144775.47;;;-1.39
84287;BMP280;74445;55.252;61.092;2024-01-30T09:07:30;144719.69;;;-1.62
84287;BMP280;74445;55.252;61.092;2024-01-30T09:09:57;144701.53;;;-1.70
84287;BMP280;74445;55.252;61.092;2024-01-30T09:12:24;144668.78;;;-1.83
84287;BMP280;74445;55.252;61.092;2024-01-30T09:14:52;144617.88;;;-2.04
84287;BMP280;74445;55.252;61.092;2024-01-30T09:17:19;144573.06;;;-2.23
84287;BMP280;74445;55.252;61.092;2024-01-30T09:19:46;144565.78;;;-2.26
84287;BMP280;74445;55.252;61.092;2024-01-30T09:22:13;144507.63;;;-2.50
84287;BMP280;74445;55.252;61.092;2024-01-30T09:24:40;144428.91;;;-2.82
84287;BMP280;74445;55.252;61.092;2024-01-30T09:27:07;144311.44;;;-3.30
84287;BMP280;74445;55.252;61.092;2024-01-30T09:29:34;144298.16;;;-3.36
84287;BMP280;74445;55.252;61.092;2024-01-30T09:32:05;144258.19;;;-3.52
84287;BMP280;74445;55.252;61.092;2024-01-30T09:34:32;144203.75;;;-3.75
84287;BMP280;74445;55.252;61.092;2024-01-30T09:36:59;144179.53;;;-3.84
84287;BMP280;74445;55.252;61.092;2024-01-30T09:39:26;144145.66;;;-3.98
84287;BMP280;74445;55.252;61.092;2024-01-30T09:42:01;144134.78;;;-4.03
84287;BMP280;74445;55.252;61.092;2024-01-30T09:44:29;144068.22;;;-4.30
84287;BMP280;74445;55.252;61.092;2024-01-30T09:46:59;144058.56;;;-4.34
84287;BMP280;74445;55.252;61.092;2024-01-30T09:49:32;144039.19;;;-4.42
84287;BMP280;74445;55.252;61.092;2024-01-30T09:51:59;143970.28;;;-4.71
84287;BMP280;74445;55.252;61.092;2024-01-30T09:54:26;143953.38;;;-4.78
84287;BMP280;74445;55.252;61.092;2024-01-30T09:56:54;143889.28;;;-5.04
84287;BMP280;74445;55.252;61.092;2024-01-30T09:59:21;143862.72;;;-5.15
84287;BMP280;74445;55.252;61.092;2024-01-30T10:01:50;143824.06;;;-5.31
84287;BMP280;74445;55.252;61.092;2024-01-30T10:04:18;143792.63;;;-5.44
84287;BMP280;74445;55.252;61.092;2024-01-30T10:06:47;143780.56;;;-5.49
84287;BMP280;74445;55.252;61.092;2024-01-30T10:09:14;143756.38;;;-5.59
84287;BMP280;74445;55.252;61.092;2024-01-30T10:11:41;143709.28;;;-5.78
84287;BMP280;74445;55.252;61.092;2024-01-30T10:14:08;143676.72;;;-5.92
84287;BMP280;74445;55.252;61.092;2024-01-30T10:16:35;143638.06;;;-6.08
84287;BMP280;74445;55.252;61.092;2024-01-30T10:19:02;143607.84;;;-6.20
84287;BMP280;74445;55.252;61.092;2024-01-30T10:21:30;143578.88;;;-6.32
84287;BMP280;74445;55.252;61.092;2024-01-30T10:23:59;143548.69;;;-6.44
84287;BMP280;74445;55.252;61.092;2024-01-30T10:26:26;143539.03;;;-6.48
84287;BMP280;74445;55.252;61.092;2024-01-30T10:28:53;143498.00;;;-6.65
84287;BMP280;74445;55.252;61.092;2024-01-30T10:31:27;143477.50;;;-6.74
84287;BMP280;74445;55.252;61.092;2024-01-30T10:33:54;143417.16;;;-6.99
84287;BMP280;74445;55.252;61.092;2024-01-30T10:36:28;143403.88;;;-7.04
84287;BMP280;74445;55.252;61.092;2024-01-30T10:39:00;143373.72;;;-7.17
84287;BMP280;74445;55.252;61.092;2024-01-30T10:41:31;143353.19;;;-7.25
84287;BMP280;74445;55.252;61.092;2024-01-30T10:44:08;143330.31;;;-7.35
84287;BMP280;74445;55.252;61.092;2024-01-30T10:46:38;143302.53;;;-7.46
84287;BMP280;74445;55.252;61.092;2024-01-30T10:49:05;143285.66;;;-7.53
84287;BMP280;74445;55.252;61.092;2024-01-30T10:51:33;143276.00;;;-7.57
84287;BMP280;74445;55.252;61.092;2024-01-30T10:54:05;143265.16;;;-7.61
84287;BMP280;74445;55.252;61.092;2024-01-30T10:56:33;143239.88;;;-7.72
84287;BMP280;74445;55.252;61.092;2024-01-30T10:59:00;143212.09;;;-7.83
84287;BMP280;74445;55.252;61.092;2024-01-30T11:01:27;143188.00;;;-7.93
84287;BMP280;74445;55.252;61.092;2024-01-30T11:03:55;143162.69;;;-8.04
84287;BMP280;74445;55.252;61.092;2024-01-30T11:06:24;143142.19;;;-8.12
84287;BMP280;74445;55.252;61.092;2024-01-30T11:09:01;143118.13;;;-8.22
84287;BMP280;74445;55.252;61.092;2024-01-30T11:11:31;143092.84;;;-8.33
84287;BMP280;74445;55.252;61.092;2024-01-30T11:14:01;143068.72;;;-8.43
84287;BMP280;74445;55.252;61.092;2024-01-30T11:16:32;143047.03;;;-8.52
84287;BMP280;74445;55.252;61.092;2024-01-30T11:19:00;143018.13;;;-8.64
84287;BMP280;74445;55.252;61.092;2024-01-30T11:21:28;142983.16;;;-8.78
84287;BMP280;74445;55.252;61.092;2024-01-30T11:23:55;142939.84;;;-8.96
84287;BMP280;74445;55.252;61.092;2024-01-30T11:26:27;142913.34;;;-9.07
84287;BMP280;74445;55.252;61.092;2024-01-30T11:28:55;142909.72;;;-9.08
84287;BMP280;74445;55.252;61.092;2024-01-30T11:31:22;142885.63;;;-9.18
84287;BMP280;74445;55.252;61.092;2024-01-30T11:33:53;142860.34;;;-9.29
84287;BMP280;74445;55.252;61.092;2024-01-30T11:36:21;142833.88;;;-9.40
84287;BMP280;74445;55.252;61.092;2024-01-30T11:38:51;142823.00;;;-9.44
84287;BMP280;74445;55.252;61.092;2024-01-30T11:41:18;142806.16;;;-9.51
84287;BMP280;74445;55.252;61.092;2024-01-30T11:43:51;142779.66;;;-9.62
84287;BMP280;74445;55.252;61.092;2024-01-30T11:46:20;142745.97;;;-9.76
84287;BMP280;74445;55.252;61.092;2024-01-30T11:48:46;142719.47;;;-9.87
84287;BMP280;74445;55.252;61.092;2024-01-30T11:51:14;142694.22;;;-9.97
84287;BMP280;74445;55.252;61.092;2024-01-30T11:53:41;142668.97;;;-10.08
84287;BMP280;74445;55.252;61.092;2024-01-30T11:56:08;142640.16;;;-10.20
84287;BMP280;74445;55.252;61.092;2024-01-30T11:58:35;142616.09;;;-10.30
84287;BMP280;74445;55.252;61.092;2024-01-30T12:01:01;142592.03;;;-10.40
84287;BMP280;74445;55.252;61.092;2024-01-30T12:03:30;142559.53;;;-10.53
84287;BMP280;74445;55.252;61.092;2024-01-30T12:05:57;142534.31;;;-10.64
84287;BMP280;74445;55.252;61.092;2024-01-30T12:08:26;142513.84;;;-10.72
84287;BMP280;74445;55.252;61.092;2024-01-30T12:10:56;142495.81;;;-10.80
84287;BMP280;74445;55.252;61.092;2024-01-30T12:13:24;142475.34;;;-10.88
84287;BMP280;74445;55.252;61.092;2024-01-30T12:15:51;142453.72;;;-10.97
84287;BMP280;74445;55.252;61.092;2024-01-30T12:18:19;142436.88;;;-11.04
84287;BMP280;74445;55.252;61.092;2024-01-30T12:20:56;142412.84;;;-11.14
84287;BMP280;74445;55.252;61.092;2024-01-30T12:23:24;142380.41;;;-11.27
84287;BMP280;74445;55.252;61.092;2024-01-30T12:25:52;142346.75;;;-11.41
84287;BMP280;74445;55.252;61.092;2024-01-30T12:28:19;142308.34;;;-11.57
84287;BMP280;74445;55.252;61.092;2024-01-30T12:30:47;142275.94;;;-11.71
84287;BMP280;74445;55.252;61.092;2024-01-30T12:33:16;142253.06;;;-11.80
84287;BMP280;74445;55.252;61.092;2024-01-30T12:35:47;141489.34;;;-11.91
84287;BMP280;74445;55.252;61.092;2024-01-30T12:38:14;140152.59;;;-12.01
84287;BMP280;74445;55.252;61.092;2024-01-30T12:40:41;135919.44;;;-12.13
84287;BMP280;74445;55.252;61.092;2024-01-30T12:43:08;133428.41;;;-12.22
84287;BMP280;74445;55.252;61.092;2024-01-30T12:45:38;130595.34;;;-12.34
84287;BMP280;74445;55.252;61.092;2024-01-30T12:48:08;132131.28;;;-12.44
84287;BMP280;74445;55.252;61.092;2024-01-30T12:50:35;132595.34;;;-12.53
84287;BMP280;74445;55.252;61.092;2024-01-30T12:53:04;132125.72;;;-12.59
84287;BMP280;74445;55.252;61.092;2024-01-30T12:55:32;131554.88;;;-12.68
84287;BMP280;74445;55.252;61.092;2024-01-30T12:57:58;130663.38;;;-12.80
84287;BMP280;74445;55.252;61.092;2024-01-30T13:00:25;129555.56;;;-12.93
84287;BMP280;74445;55.252;61.092;2024-01-30T13:02:52;128578.44;;;-13.08
84287;BMP280;74445;55.252;61.092;2024-01-30T13:05:18;128977.59;;;-13.25
84287;BMP280;74445;55.252;61.092;2024-01-30T13:07:45;130002.78;;;-13.42
84287;BMP280;74445;55.252;61.092;2024-01-30T13:10:14;132524.03;;;-13.56
84287;BMP280;74445;55.252;61.092;2024-01-30T13:12:40;133421.50;;;-13.70
84287;BMP280;74445;55.252;61.092;2024-01-30T13:15:07;137419.16;;;-13.84
84287;BMP280;74445;55.252;61.092;2024-01-30T13:17:35;138315.03;;;-13.99
84287;BMP280;74445;55.252;61.092;2024-01-30T13:20:02;138281.09;;;-14.13
84287;BMP280;74445;55.252;61.092;2024-01-30T13:22:30;137014.06;;;-14.25
84287;BMP280;74445;55.252;61.092;2024-01-30T13:24:56;134813.88;;;-14.39
84287;BMP280;74445;55.252;61.092;2024-01-30T13:27:26;134161.56;;;-14.54
84287;BMP280;74445;55.252;61.092;2024-01-30T13:29:53;133505.00;;;-14.70
84287;BMP280;74445;55.252;61.092;2024-01-30T13:32:20;134096.72;;;-14.82
84287;BMP280;74445;55.252;61.092;2024-01-30T13:34:47;135310.44;;;-14.92
84287;BMP280;74445;55.252;61.092;2024-01-30T13:37:14;135286.34;;;-15.03
84287;BMP280;74445;55.252;61.092;2024-01-30T13:39:40;133100.63;;;-15.12
84287;BMP280;74445;55.252;61.092;2024-01-30T13:42:07;131840.00;;;-15.22